createdAt,value
2022-10-04T00:00:46.616Z,9.60
2022-10-04T00:03:26.906Z,7.47
2022-10-04T00:05:57.199Z,9.30
2022-10-04T00:08:27.690Z,13.33
2022-10-04T00:11:13.784Z,7.63
2022-10-04T00:13:43.214Z,8.63
2022-10-04T00:16:21.158Z,13.10
2022-10-04T00:18:51.729Z,11.90
2022-10-04T00:21:20.245Z,12.47
2022-10-04T00:23:49.377Z,10.50
2022-10-04T00:26:32.723Z,7.67
2022-10-04T00:29:01.185Z,9.47
2022-10-04T00:31:30.727Z,12.27
2022-10-04T00:34:21.735Z,10.03
2022-10-04T00:36:53.083Z,9.77
2022-10-04T00:39:36.367Z,12.23
2022-10-04T00:42:10.493Z,14.03
2022-10-04T00:44:40.995Z,10.17
2022-10-04T00:47:18.820Z,9.37
2022-10-04T00:49:49.207Z,8.90
2022-10-04T00:52:21.995Z,11.80
2022-10-04T00:54:52.456Z,10.03
2022-10-04T00:57:23.340Z,11.33
2022-10-04T00:59:52.793Z,9.40
2022-10-04T01:02:22.725Z,11.27
2022-10-04T01:04:54.822Z,9.30
2022-10-04T01:07:25.960Z,8.57
2022-10-04T01:09:56.033Z,8.13
2022-10-04T01:12:28.963Z,7.33
2022-10-04T01:15:01.837Z,8.47
2022-10-04T01:17:30.377Z,9.77
2022-10-04T01:20:00.254Z,10.03
2022-10-04T01:22:39.122Z,10.17
2022-10-04T01:25:07.843Z,7.30
2022-10-04T01:27:37.738Z,9.03
2022-10-04T01:30:09.529Z,7.80
2022-10-04T01:32:39.148Z,11.03
2022-10-04T01:35:09.072Z,11.40
2022-10-04T01:37:41.078Z,13.33
2022-10-04T01:40:10.918Z,11.80
2022-10-04T01:42:42.365Z,13.87
2022-10-04T01:45:15.713Z,11.03
2022-10-04T01:47:46.548Z,7.97
2022-10-04T01:50:17.509Z,11.63
2022-10-04T01:52:50.235Z,11.93
2022-10-04T01:55:21.251Z,13.50
2022-10-04T01:57:52.801Z,11.73
2022-10-04T02:00:24.594Z,12.37
2022-10-04T02:02:54.695Z,8.20
2022-10-04T02:05:29.897Z,9.97
2022-10-04T02:08:04.205Z,8.67
2022-10-04T02:10:39.724Z,8.70
2022-10-04T02:13:11.883Z,6.33
2022-10-04T02:15:40.828Z,9.07
2022-10-04T02:18:12.686Z,9.87
2022-10-04T02:20:42.178Z,8.77
2022-10-04T02:23:12.887Z,7.13
2022-10-04T02:25:41.468Z,9.30
2022-10-04T02:28:12.286Z,9.23
2022-10-04T02:30:42.414Z,9.40
2022-10-04T02:33:10.523Z,11.00
2022-10-04T02:35:39.949Z,9.47
2022-10-04T02:38:11.224Z,8.93
2022-10-04T02:40:44.480Z,13.07
2022-10-04T02:43:16.691Z,8.47
2022-10-04T02:45:48.660Z,9.30
2022-10-04T02:48:34.940Z,12.37
2022-10-04T02:51:08.665Z,16.23
2022-10-04T02:53:44.102Z,11.40
2022-10-04T02:56:14.746Z,9.73
2022-10-04T02:58:43.910Z,7.73
2022-10-04T03:01:17.506Z,14.73
2022-10-04T03:03:47.697Z,11.77
2022-10-04T03:06:18.561Z,16.67
2022-10-04T03:08:49.559Z,13.60
2022-10-04T03:11:22.722Z,10.97
2022-10-04T03:13:52.490Z,14.27
2022-10-04T03:16:21.878Z,13.00
2022-10-04T03:18:51.429Z,13.53
2022-10-04T03:21:20.862Z,8.73
2022-10-04T03:23:50.362Z,11.67
2022-10-04T03:26:26.318Z,10.80
2022-10-04T03:28:55.123Z,13.87
2022-10-04T03:31:24.394Z,9.00
2022-10-04T03:33:53.042Z,13.53
2022-10-04T03:36:21.511Z,9.23
2022-10-04T03:38:51.064Z,13.63
2022-10-04T03:41:19.790Z,11.93
2022-10-04T03:43:50.664Z,12.20
2022-10-04T03:46:19.637Z,15.60
2022-10-04T03:48:50.793Z,10.43
2022-10-04T03:51:22.165Z,11.57
2022-10-04T03:53:51.981Z,12.07
2022-10-04T03:56:22.387Z,10.97
2022-10-04T03:58:53.552Z,12.23
2022-10-04T04:01:37.846Z,9.87
2022-10-04T04:04:13.969Z,10.20
2022-10-04T04:06:44.238Z,11.57
2022-10-04T04:09:19.928Z,13.43
2022-10-04T04:11:50.910Z,14.23
2022-10-04T04:14:23.150Z,13.33
2022-10-04T04:16:52.589Z,10.80
2022-10-04T04:19:23.390Z,12.50
2022-10-04T04:21:52.274Z,10.83
2022-10-04T04:24:25.439Z,12.87
2022-10-04T04:26:56.336Z,10.13
2022-10-04T04:29:27.728Z,14.67
2022-10-04T04:31:58.317Z,10.97
2022-10-04T04:34:29.972Z,11.43
2022-10-04T04:37:00.100Z,12.40
2022-10-04T04:39:41.266Z,12.13
2022-10-04T04:42:16.085Z,9.63
2022-10-04T04:44:50.999Z,13.57
2022-10-04T04:47:27.488Z,12.73
2022-10-04T04:49:56.831Z,12.83
2022-10-04T04:52:27.376Z,12.27
2022-10-04T04:54:56.876Z,9.93
2022-10-04T04:57:25.671Z,10.57
2022-10-04T04:59:57.351Z,8.33
2022-10-04T05:02:29.166Z,8.17
2022-10-04T05:05:12.291Z,12.10
2022-10-04T05:07:43.699Z,9.00
2022-10-04T05:10:22.375Z,10.27
2022-10-04T05:12:52.026Z,14.17
2022-10-04T05:15:22.703Z,11.67
2022-10-04T05:17:51.209Z,13.23
2022-10-04T05:20:20.305Z,11.40
2022-10-04T05:22:49.715Z,11.77
2022-10-04T05:25:25.118Z,13.60
2022-10-04T05:27:55.259Z,16.97
2022-10-04T05:30:30.950Z,10.20
2022-10-04T05:33:02.027Z,8.90
2022-10-04T05:35:31.378Z,10.73
2022-10-04T05:38:04.311Z,15.63
2022-10-04T05:40:36.028Z,14.13
2022-10-04T05:43:04.836Z,13.10
2022-10-04T05:45:34.661Z,10.50
2022-10-04T05:48:03.791Z,12.17
2022-10-04T05:50:33.851Z,8.83
2022-10-04T05:53:16.874Z,8.97
2022-10-04T05:55:48.766Z,8.27
2022-10-04T05:58:25.395Z,11.77
2022-10-04T06:01:16.802Z,8.67
2022-10-04T06:04:00.163Z,10.47
2022-10-04T06:06:33.243Z,10.73
2022-10-04T06:09:07.806Z,10.27
2022-10-04T06:11:41.412Z,13.50
2022-10-04T06:14:29.243Z,14.97
2022-10-04T06:17:08.428Z,13.20
2022-10-04T06:19:46.832Z,11.07
2022-10-04T06:22:17.807Z,11.40
2022-10-04T06:24:48.001Z,13.03
2022-10-04T06:27:19.848Z,12.67
2022-10-04T06:29:51.010Z,12.73
2022-10-04T06:32:37.537Z,12.40
2022-10-04T06:35:20.789Z,10.10
2022-10-04T06:38:01.559Z,11.43
2022-10-04T06:40:47.876Z,10.67
2022-10-04T06:43:24.381Z,10.13
2022-10-04T06:46:01.015Z,7.33
2022-10-04T06:48:39.611Z,10.40
2022-10-04T06:51:16.002Z,12.07
2022-10-04T06:53:53.219Z,13.83
2022-10-04T06:56:28.659Z,10.73
2022-10-04T06:59:17.383Z,9.23
2022-10-04T07:01:50.783Z,12.63
2022-10-04T07:04:26.202Z,8.53
2022-10-04T07:07:17.957Z,9.07
2022-10-04T07:09:48.516Z,11.03
2022-10-04T07:12:18.514Z,6.90
2022-10-04T07:14:49.114Z,10.30
2022-10-04T07:17:21.427Z,9.00
2022-10-04T07:19:51.177Z,7.70
2022-10-04T07:22:23.981Z,8.60
2022-10-04T07:25:04.999Z,8.73
2022-10-04T07:27:35.965Z,8.73
2022-10-04T07:30:06.127Z,6.17
2022-10-04T07:32:36.669Z,7.83
2022-10-04T07:35:07.369Z,12.40
2022-10-04T07:37:36.836Z,9.13
2022-10-04T07:40:09.790Z,10.00
2022-10-04T07:42:41.673Z,9.20
2022-10-04T07:45:15.934Z,8.27
2022-10-04T07:47:45.024Z,9.97
2022-10-04T07:50:32.204Z,7.93
2022-10-04T07:53:07.166Z,9.83
2022-10-04T07:55:47.663Z,11.27
2022-10-04T07:58:26.962Z,7.63
2022-10-04T08:00:58.320Z,10.50
2022-10-04T08:03:50.838Z,12.40
2022-10-04T08:06:22.322Z,9.20
2022-10-04T08:09:11.645Z,9.63
2022-10-04T08:11:50.887Z,10.87
2022-10-04T08:14:27.639Z,8.47
2022-10-04T08:17:04.537Z,7.00
2022-10-04T08:19:38.386Z,10.70
2022-10-04T08:22:15.845Z,8.10
2022-10-04T08:24:48.918Z,10.03
2022-10-04T08:27:28.617Z,10.50
2022-10-04T08:30:11.632Z,7.40
2022-10-04T08:32:56.067Z,9.60
2022-10-04T08:35:36.326Z,8.97
2022-10-04T08:38:18.464Z,6.87
2022-10-04T08:41:05.150Z,9.57
2022-10-04T08:44:05.703Z,5.73
2022-10-04T08:46:55.702Z,8.97
2022-10-04T08:49:38.968Z,9.37
2022-10-04T08:52:14.561Z,9.73
2022-10-04T08:54:52.108Z,9.60
2022-10-04T08:57:32.499Z,9.07
2022-10-04T09:00:12.677Z,7.33
2022-10-04T09:03:08.867Z,10.23
2022-10-04T09:05:55.909Z,9.47
2022-10-04T09:08:37.077Z,8.80
2022-10-04T09:11:17.588Z,7.27
2022-10-04T09:13:55.190Z,8.87
2022-10-04T09:16:31.852Z,8.13
2022-10-04T09:19:15.501Z,9.03
2022-10-04T09:21:54.291Z,6.83
2022-10-04T09:24:35.024Z,7.50
2022-10-04T09:27:23.102Z,6.87
2022-10-04T09:30:16.661Z,8.63
2022-10-04T09:33:03.169Z,6.00
2022-10-04T09:35:49.947Z,9.07
2022-10-04T09:39:05.854Z,10.23
2022-10-04T09:41:43.982Z,6.23
2022-10-04T09:44:33.910Z,7.70
2022-10-04T09:47:12.471Z,13.27
2022-10-04T09:49:50.787Z,6.10
2022-10-04T09:52:25.473Z,7.72
2022-10-04T09:55:05.107Z,7.68
2022-10-04T09:57:44.908Z,6.03
2022-10-04T10:00:22.245Z,6.75
2022-10-04T10:03:15.795Z,9.02
2022-10-04T10:05:51.197Z,7.18
2022-10-04T10:08:28.109Z,7.15
2022-10-04T10:11:19.285Z,5.78
2022-10-04T10:14:17.928Z,6.78
2022-10-04T10:16:55.654Z,6.13
2022-10-04T10:19:36.492Z,5.75
2022-10-04T10:22:16.467Z,5.88
2022-10-04T10:25:01.199Z,4.65
2022-10-04T10:27:39.793Z,7.13
2022-10-04T10:30:17.595Z,7.20
2022-10-04T10:32:58.116Z,7.18
2022-10-04T10:35:43.881Z,8.65
2022-10-04T10:38:25.972Z,5.95
2022-10-04T10:41:03.527Z,7.40
2022-10-04T10:43:47.624Z,6.82
2022-10-04T10:46:35.023Z,5.90
2022-10-04T10:49:22.563Z,5.95
2022-10-04T10:52:10.859Z,8.57
2022-10-04T10:54:59.819Z,6.97
2022-10-04T10:57:41.577Z,6.20
2022-10-04T11:00:27.832Z,5.35
2022-10-04T11:03:15.816Z,5.60
2022-10-04T11:06:05.451Z,6.20
2022-10-04T11:08:48.354Z,4.22
2022-10-04T11:11:23.854Z,3.95
2022-10-04T11:14:02.350Z,4.55
2022-10-04T11:16:49.134Z,4.78
2022-10-04T11:19:29.404Z,7.22
2022-10-04T11:22:17.726Z,6.20
2022-10-04T11:24:59.460Z,4.88
2022-10-04T11:27:48.814Z,3.75
2022-10-04T11:30:23.517Z,5.25
2022-10-04T11:33:17.394Z,5.30
2022-10-04T11:36:03.803Z,4.13
2022-10-04T11:38:48.628Z,3.20
2022-10-04T11:41:21.881Z,5.07
2022-10-04T11:44:05.193Z,4.15
2022-10-04T11:46:39.189Z,7.47
2022-10-04T11:49:14.996Z,5.55
2022-10-04T11:52:05.107Z,7.38
2022-10-04T11:54:51.629Z,5.45
2022-10-04T11:57:27.544Z,6.60
2022-10-04T12:00:01.158Z,6.50
2022-10-04T12:02:57.026Z,4.38
2022-10-04T12:05:32.406Z,4.70
2022-10-04T12:08:05.697Z,5.13
2022-10-04T12:10:37.347Z,3.65
2022-10-04T12:13:32.768Z,5.32
2022-10-04T12:16:13.918Z,5.03
2022-10-04T12:18:56.276Z,3.65
2022-10-04T12:21:43.207Z,3.53
2022-10-04T12:24:29.097Z,5.65
2022-10-04T12:27:20.189Z,3.80
2022-10-04T12:30:09.439Z,5.82
2022-10-04T12:32:41.354Z,4.88
2022-10-04T12:35:19.519Z,5.40
2022-10-04T12:37:56.271Z,3.72
2022-10-04T12:40:30.586Z,4.20
2022-10-04T12:43:04.992Z,4.97
2022-10-04T12:45:44.343Z,7.72
2022-10-04T12:48:24.942Z,4.75
2022-10-04T12:51:02.934Z,5.68
2022-10-04T12:53:40.320Z,4.93
2022-10-04T12:56:10.375Z,4.53
2022-10-04T12:58:50.563Z,4.45
2022-10-04T13:01:22.667Z,5.53
2022-10-04T13:04:14.861Z,3.85
2022-10-04T13:07:00.684Z,4.63
2022-10-04T13:09:35.095Z,3.08
2022-10-04T13:12:12.304Z,6.75
2022-10-04T13:14:45.788Z,4.35
2022-10-04T13:17:34.461Z,4.40
2022-10-04T13:20:17.963Z,5.60
2022-10-04T13:22:56.987Z,5.53
2022-10-04T13:25:32.928Z,4.38
2022-10-04T13:28:05.414Z,4.28
2022-10-04T13:30:37.272Z,4.53
2022-10-04T13:33:10.473Z,4.95
2022-10-04T13:35:42.391Z,4.78
2022-10-04T13:38:31.788Z,4.80
2022-10-04T13:41:10.720Z,3.55
2022-10-04T13:44:03.655Z,5.78
2022-10-04T13:46:40.722Z,5.68
2022-10-04T13:49:32.118Z,5.20
2022-10-04T13:52:23.375Z,2.95
2022-10-04T13:55:16.154Z,5.55
2022-10-04T13:57:50.093Z,3.95
2022-10-04T14:00:22.868Z,4.35
2022-10-04T14:03:14.078Z,2.50
2022-10-04T14:06:01.835Z,5.03
2022-10-04T14:08:46.130Z,3.28
2022-10-04T14:11:43.234Z,5.10
2022-10-04T14:14:32.305Z,4.00
2022-10-04T14:17:16.432Z,3.75
2022-10-04T14:19:58.237Z,3.15
2022-10-04T14:22:45.583Z,3.35
2022-10-04T14:25:32.321Z,4.35
2022-10-04T14:28:35.029Z,4.95
2022-10-04T14:31:22.578Z,2.63
2022-10-04T14:34:58.882Z,2.75
2022-10-04T14:37:53.625Z,3.10
2022-10-04T14:40:40.632Z,4.05
2022-10-04T14:43:24.109Z,2.97
2022-10-04T14:46:08.182Z,4.07
2022-10-04T14:49:02.163Z,3.40
2022-10-04T14:51:43.530Z,4.45
2022-10-04T14:54:14.481Z,4.50
2022-10-04T14:56:48.096Z,3.97
2022-10-04T14:59:27.944Z,4.57
2022-10-04T15:02:26.351Z,3.83
2022-10-04T15:05:21.510Z,5.95
2022-10-04T15:07:53.565Z,4.93
2022-10-04T15:10:24.351Z,2.65
2022-10-04T15:13:15.029Z,4.93
2022-10-04T15:15:53.095Z,3.92
2022-10-04T15:18:29.303Z,5.55
2022-10-04T15:21:01.324Z,2.78
2022-10-04T15:23:37.938Z,4.68
2022-10-04T15:26:08.952Z,3.75
2022-10-04T15:28:48.558Z,5.43
2022-10-04T15:31:20.959Z,3.30
2022-10-04T15:33:58.020Z,3.53
2022-10-04T15:36:33.817Z,3.17
2022-10-04T15:39:06.269Z,4.22
2022-10-04T15:41:39.014Z,3.70
2022-10-04T15:44:20.637Z,4.65
2022-10-04T15:46:52.971Z,4.70
2022-10-04T15:49:32.983Z,5.25
2022-10-04T15:52:14.205Z,3.63
2022-10-04T15:55:04.286Z,3.53
2022-10-04T15:57:37.795Z,3.42
2022-10-04T16:00:15.724Z,3.15
2022-10-04T16:03:09.300Z,4.50
2022-10-04T16:05:40.092Z,8.23
2022-10-04T16:08:20.669Z,6.03
2022-10-04T16:10:58.104Z,3.10
2022-10-04T16:13:37.323Z,4.30
2022-10-04T16:16:39.932Z,4.45
2022-10-04T16:19:15.756Z,4.50
2022-10-04T16:21:51.857Z,4.07
2022-10-04T16:24:38.732Z,6.53
2022-10-04T16:27:16.574Z,4.20
2022-10-04T16:30:08.258Z,5.30
2022-10-04T16:32:43.459Z,3.30
2022-10-04T16:35:21.083Z,4.22
2022-10-04T16:37:57.077Z,4.55
2022-10-04T16:40:34.523Z,4.60
2022-10-04T16:43:07.304Z,5.13
2022-10-04T16:45:44.207Z,3.92
2022-10-04T16:48:31.542Z,4.32
2022-10-04T16:51:18.461Z,3.60
2022-10-04T16:53:51.326Z,3.47
2022-10-04T16:56:20.514Z,5.28
2022-10-04T16:58:54.966Z,5.47
2022-10-04T17:01:54.916Z,4.90
2022-10-04T17:04:42.324Z,5.35
2022-10-04T17:07:15.850Z,7.40
2022-10-04T17:09:49.558Z,7.90
2022-10-04T17:12:19.764Z,5.73
2022-10-04T17:15:06.945Z,8.47
2022-10-04T17:17:44.563Z,7.33
2022-10-04T17:20:17.856Z,12.20
2022-10-04T17:22:53.776Z,6.40
2022-10-04T17:25:28.725Z,8.40
2022-10-04T17:28:00.554Z,6.97
2022-10-04T17:30:30.112Z,5.73
2022-10-04T17:33:09.002Z,6.80
2022-10-04T17:35:58.452Z,5.97
2022-10-04T17:38:30.265Z,8.13
2022-10-04T17:41:01.900Z,4.80
2022-10-04T17:43:35.741Z,6.23
2022-10-04T17:46:10.998Z,5.83
2022-10-04T17:49:01.892Z,3.97
2022-10-04T17:51:59.548Z,6.53
2022-10-04T17:54:46.605Z,4.83
2022-10-04T17:57:23.083Z,5.63
2022-10-04T17:59:54.339Z,6.17
2022-10-04T18:02:25.956Z,6.17
2022-10-04T18:04:57.725Z,5.97
2022-10-04T18:07:30.659Z,7.90
2022-10-04T18:10:02.395Z,5.17
2022-10-04T18:12:32.246Z,6.50
2022-10-04T18:15:04.186Z,6.00
2022-10-04T18:17:35.641Z,5.27
2022-10-04T18:20:20.608Z,6.90
2022-10-04T18:22:53.354Z,7.13
2022-10-04T18:25:23.575Z,7.60
2022-10-04T18:27:53.778Z,7.57
2022-10-04T18:30:23.348Z,7.30
2022-10-04T18:32:52.813Z,8.10
2022-10-04T18:35:27.840Z,7.83
2022-10-04T18:37:57.436Z,10.40
2022-10-04T18:40:26.740Z,8.20
2022-10-04T18:42:57.272Z,8.90
2022-10-04T18:45:27.011Z,9.97
2022-10-04T18:47:55.833Z,8.97
2022-10-04T18:50:32.339Z,11.57
2022-10-04T18:53:13.931Z,8.47
2022-10-04T18:55:44.667Z,7.80
2022-10-04T18:58:41.645Z,8.27
2022-10-04T19:01:32.682Z,6.23
2022-10-04T19:04:05.188Z,7.40
2022-10-04T19:06:35.719Z,9.17
2022-10-04T19:09:07.292Z,8.77
2022-10-04T19:11:39.873Z,6.60
2022-10-04T19:14:17.923Z,7.60
2022-10-04T19:16:51.963Z,10.97
2022-10-04T19:19:25.277Z,11.73
2022-10-04T19:21:59.285Z,8.07
2022-10-04T19:24:33.771Z,7.53
2022-10-04T19:27:04.858Z,9.50
2022-10-04T19:29:43.086Z,8.63
2022-10-04T19:32:15.715Z,9.63
2022-10-04T19:34:49.125Z,8.37
2022-10-04T19:37:25.638Z,10.93
2022-10-04T19:40:00.375Z,12.27
2022-10-04T19:42:31.313Z,13.17
2022-10-04T19:45:10.198Z,8.77
2022-10-04T19:47:42.330Z,8.30
2022-10-04T19:50:18.463Z,9.77
2022-10-04T19:52:53.414Z,9.97
2022-10-04T19:55:23.692Z,6.00
2022-10-04T19:57:52.989Z,12.20
2022-10-04T20:00:22.146Z,9.63
2022-10-04T20:02:50.686Z,9.40
2022-10-04T20:05:24.870Z,8.10
2022-10-04T20:08:01.513Z,10.30
2022-10-04T20:10:34.713Z,9.30
2022-10-04T20:13:10.722Z,7.80
2022-10-04T20:15:46.725Z,7.20
2022-10-04T20:18:33.524Z,7.70
2022-10-04T20:21:06.433Z,10.07
2022-10-04T20:23:56.698Z,6.90
2022-10-04T20:27:06.153Z,6.00
2022-10-04T20:29:56.147Z,8.27
2022-10-04T20:32:43.193Z,7.03
2022-10-04T20:35:13.891Z,8.43
2022-10-04T20:38:19.998Z,7.63
2022-10-04T20:40:46.550Z,9.10
2022-10-04T20:43:28.539Z,7.67
2022-10-04T20:45:58.687Z,9.07
2022-10-04T20:48:27.997Z,7.40
2022-10-04T20:50:57.023Z,7.70
2022-10-04T20:53:28.245Z,6.87
2022-10-04T20:56:19.446Z,6.97
2022-10-04T20:58:53.897Z,10.43
2022-10-04T21:01:42.406Z,7.10
2022-10-04T21:04:15.371Z,8.17
2022-10-04T21:06:53.608Z,8.73
2022-10-04T21:09:22.230Z,10.27
2022-10-04T21:11:52.562Z,9.77
2022-10-04T21:14:26.285Z,9.23
2022-10-04T21:16:59.930Z,7.60
2022-10-04T21:19:31.018Z,7.57
2022-10-04T21:21:59.851Z,9.23
2022-10-04T21:24:29.196Z,8.30
2022-10-04T21:26:57.891Z,7.30
2022-10-04T21:29:27.723Z,8.83
2022-10-04T21:31:57.664Z,8.20
2022-10-04T21:34:48.646Z,9.87
2022-10-04T21:37:15.006Z,7.10
2022-10-04T21:39:43.426Z,8.13
2022-10-04T21:42:11.871Z,8.30
2022-10-04T21:44:41.704Z,8.50
2022-10-04T21:47:10.262Z,9.33
2022-10-04T21:49:38.753Z,8.03
2022-10-04T21:52:07.264Z,8.57
2022-10-04T21:54:35.766Z,8.07
2022-10-04T21:57:04.263Z,7.67
2022-10-04T21:59:32.720Z,8.53
2022-10-04T22:02:02.638Z,6.27
2022-10-04T22:04:31.213Z,6.97
2022-10-04T22:06:59.716Z,10.60
2022-10-04T22:09:29.142Z,6.30
2022-10-04T22:11:57.680Z,6.63
2022-10-04T22:14:26.147Z,6.37
2022-10-04T22:16:54.627Z,6.40
2022-10-04T22:19:24.515Z,7.57
2022-10-04T22:21:53.048Z,10.33
2022-10-04T22:24:22.534Z,13.40
2022-10-04T22:26:51.001Z,6.37
2022-10-04T22:29:19.983Z,9.27
2022-10-04T22:31:51.076Z,6.40
2022-10-04T22:34:20.069Z,9.20
2022-10-04T22:36:51.456Z,6.33
2022-10-04T22:39:21.084Z,7.00
2022-10-04T22:41:50.491Z,8.97
2022-10-04T22:44:20.392Z,6.83
2022-10-04T22:46:50.638Z,7.00
2022-10-04T22:49:21.728Z,6.50
2022-10-04T22:51:52.596Z,8.07
2022-10-04T22:54:21.737Z,8.13
2022-10-04T22:56:50.492Z,6.87
2022-10-04T22:59:20.562Z,7.57
2022-10-04T23:01:49.490Z,7.53
2022-10-04T23:04:20.987Z,6.70
2022-10-04T23:06:51.228Z,9.90
2022-10-04T23:09:19.728Z,8.17
2022-10-04T23:11:48.435Z,10.70
2022-10-04T23:14:16.947Z,6.50
2022-10-04T23:16:45.635Z,6.93
2022-10-04T23:19:15.508Z,6.73
2022-10-04T23:21:45.650Z,6.43
2022-10-04T23:24:17.925Z,8.90
2022-10-04T23:26:48.402Z,6.27
2022-10-04T23:29:19.584Z,6.30
2022-10-04T23:31:49.822Z,6.80
2022-10-04T23:34:20.723Z,7.37
2022-10-04T23:36:49.750Z,10.93
2022-10-04T23:39:24.732Z,10.40
2022-10-04T23:41:53.991Z,8.67
2022-10-04T23:44:24.134Z,7.97
2022-10-04T23:46:52.928Z,6.53
2022-10-04T23:49:22.710Z,10.87
2022-10-04T23:51:53.908Z,6.67
2022-10-04T23:54:24.616Z,9.40
2022-10-04T23:56:53.192Z,8.83
2022-10-04T23:59:23.840Z,10.77
